createdAt,value
2019-04-14T00:00:44.982Z,0.00
2019-04-14T00:01:45.513Z,0.00
2019-04-14T00:02:44.963Z,0.00
2019-04-14T00:03:45.414Z,0.00
2019-04-14T00:04:44.936Z,0.00
2019-04-14T00:05:45.128Z,0.00
2019-04-14T00:06:46.174Z,0.00
2019-04-14T00:07:45.087Z,0.00
2019-04-14T00:08:45.907Z,0.00
2019-04-14T00:09:45.312Z,0.00
2019-04-14T00:10:44.864Z,0.00
2019-04-14T00:11:45.899Z,0.00
2019-04-14T00:12:44.930Z,0.00
2019-04-14T00:13:45.670Z,0.00
2019-04-14T00:14:44.826Z,0.00
2019-04-14T00:15:48.486Z,0.00
2019-04-14T00:16:44.803Z,0.00
2019-04-14T00:17:45.639Z,0.00
2019-04-14T00:18:44.810Z,0.00
2019-04-14T00:19:45.642Z,0.00
2019-04-14T00:20:44.848Z,0.00
2019-04-14T00:21:45.456Z,0.00
2019-04-14T00:22:44.732Z,0.00
2019-04-14T00:23:45.627Z,0.00
2019-04-14T00:24:44.706Z,0.00
2019-04-14T00:25:45.489Z,0.00
2019-04-14T00:26:44.686Z,0.00
2019-04-14T00:27:45.343Z,0.00
2019-04-14T00:28:44.755Z,0.00
2019-04-14T00:29:45.775Z,0.00
2019-04-14T00:30:44.810Z,0.00
2019-04-14T00:31:45.531Z,0.00
2019-04-14T00:32:44.609Z,0.00
2019-04-14T00:33:45.326Z,0.00
2019-04-14T00:34:44.594Z,0.00
2019-04-14T00:35:44.916Z,0.00
2019-04-14T00:36:45.864Z,0.00
2019-04-14T00:37:44.558Z,0.00
2019-04-14T00:38:45.602Z,0.00
2019-04-14T00:39:44.533Z,0.00
2019-04-14T00:40:45.422Z,0.00
2019-04-14T00:41:50.275Z,0.00
2019-04-14T00:42:45.208Z,0.00
2019-04-14T00:43:44.485Z,0.00
2019-04-14T00:44:45.290Z,0.00
2019-04-14T00:45:48.219Z,0.00
2019-04-14T00:46:45.272Z,0.00
2019-04-14T00:47:55.737Z,0.00
2019-04-14T00:48:45.225Z,0.00
2019-04-14T00:49:44.417Z,0.00
2019-04-14T00:50:45.255Z,0.00
2019-04-14T00:51:44.422Z,0.00
2019-04-14T00:52:44.380Z,0.00
2019-04-14T00:53:44.636Z,0.00
2019-04-14T00:54:45.421Z,0.00
2019-04-14T00:55:44.404Z,0.00
2019-04-14T00:56:45.443Z,0.00
2019-04-14T00:57:44.322Z,0.00
2019-04-14T00:58:45.359Z,0.00
2019-04-14T00:59:44.304Z,0.00
2019-04-14T01:00:45.155Z,0.00
2019-04-14T01:01:44.277Z,0.00
2019-04-14T01:02:45.038Z,0.00
2019-04-14T01:03:44.251Z,0.00
2019-04-14T01:04:44.774Z,0.00
2019-04-14T01:05:44.227Z,0.00
2019-04-14T01:06:44.864Z,0.00
2019-04-14T01:07:45.488Z,0.00
2019-04-14T01:08:44.511Z,0.00
2019-04-14T01:09:44.293Z,0.00
2019-04-14T01:10:45.351Z,0.00
2019-04-14T01:11:44.386Z,0.00
2019-04-14T01:12:45.299Z,0.00
2019-04-14T01:13:44.141Z,0.00
2019-04-14T01:14:45.195Z,0.00
2019-04-14T01:15:51.459Z,0.00
2019-04-14T01:16:45.194Z,0.00
2019-04-14T01:17:44.086Z,0.00
2019-04-14T01:18:45.109Z,0.00
2019-04-14T01:19:44.068Z,0.00
2019-04-14T01:20:44.973Z,0.00
2019-04-14T01:21:44.047Z,0.00
2019-04-14T01:22:44.551Z,0.00
2019-04-14T01:23:44.020Z,0.00
2019-04-14T01:24:44.688Z,0.00
2019-04-14T01:25:45.237Z,0.00
2019-04-14T01:26:44.259Z,0.00
2019-04-14T01:27:45.043Z,0.00
2019-04-14T01:28:44.089Z,0.00
2019-04-14T01:29:44.863Z,0.00
2019-04-14T01:30:43.939Z,0.00
2019-04-14T01:31:44.667Z,0.00
2019-04-14T01:32:43.918Z,0.00
2019-04-14T01:33:44.426Z,0.00
2019-04-14T01:34:43.892Z,0.00
2019-04-14T01:35:44.350Z,0.00
2019-04-14T01:36:43.867Z,0.00
2019-04-14T01:37:44.127Z,0.00
2019-04-14T01:38:44.912Z,0.00
2019-04-14T01:39:43.834Z,0.00
2019-04-14T01:40:44.578Z,0.00
2019-04-14T01:41:43.808Z,0.00
2019-04-14T01:42:44.208Z,0.00
2019-04-14T01:43:43.780Z,0.00
2019-04-14T01:44:43.895Z,0.00
2019-04-14T01:45:44.867Z,0.00
2019-04-14T01:46:43.748Z,0.00
2019-04-14T01:47:44.536Z,0.00
2019-04-14T01:48:43.724Z,0.00
2019-04-14T01:49:44.380Z,0.00
2019-04-14T01:50:43.707Z,0.00
2019-04-14T01:51:44.200Z,0.00
2019-04-14T01:52:43.734Z,0.00
2019-04-14T01:53:44.609Z,0.00
2019-04-14T01:54:43.651Z,0.00
2019-04-14T01:55:44.113Z,0.00
2019-04-14T01:56:44.914Z,0.00
2019-04-14T01:57:43.839Z,0.00
2019-04-14T01:58:44.674Z,0.00
2019-04-14T01:59:43.865Z,0.00
2019-04-14T02:00:44.469Z,0.00
2019-04-14T02:01:44.073Z,0.00
2019-04-14T02:02:44.326Z,0.00
2019-04-14T02:03:43.545Z,0.00
2019-04-14T02:04:44.342Z,0.00
2019-04-14T02:05:43.521Z,0.00
2019-04-14T02:06:44.102Z,0.00
2019-04-14T02:07:43.495Z,0.00
2019-04-14T02:08:43.703Z,0.00
2019-04-14T02:09:44.430Z,0.00
2019-04-14T02:10:43.546Z,0.00
2019-04-14T02:11:44.515Z,0.00
2019-04-14T02:12:43.436Z,0.00
2019-04-14T02:13:44.275Z,0.00
2019-04-14T02:14:43.409Z,0.00
2019-04-14T02:15:44.268Z,0.00
2019-04-14T02:16:50.063Z,0.00
2019-04-14T02:17:43.826Z,0.00
2019-04-14T02:18:43.359Z,0.00
2019-04-14T02:19:43.876Z,0.00
2019-04-14T02:20:44.599Z,0.00
2019-04-14T02:21:43.493Z,0.00
2019-04-14T02:22:44.098Z,0.00
2019-04-14T02:23:43.402Z,0.00
2019-04-14T02:24:43.878Z,0.00
2019-04-14T02:25:43.277Z,0.00
2019-04-14T02:26:43.835Z,0.00
2019-04-14T02:27:43.250Z,0.00
2019-04-14T02:28:43.881Z,0.00
2019-04-14T02:29:43.230Z,0.00
2019-04-14T02:30:53.996Z,0.00
2019-04-14T02:32:11.246Z,0.00
2019-04-14T02:33:13.855Z,0.00
2019-04-14T02:34:07.341Z,0.00
2019-04-14T02:35:13.278Z,0.00
2019-04-14T02:36:14.741Z,0.00
2019-04-14T02:37:10.760Z,0.00
2019-04-14T02:38:18.192Z,0.00
2019-04-14T02:39:13.492Z,0.00
2019-04-14T02:40:08.523Z,0.00
2019-04-14T02:41:18.890Z,0.00
2019-04-14T02:42:17.395Z,0.00
2019-04-14T02:43:12.919Z,0.00
2019-04-14T02:44:15.319Z,0.00
2019-04-14T02:45:10.424Z,0.00
2019-04-14T02:47:27.077Z,0.00
2019-04-14T02:48:29.074Z,0.00
2019-04-14T02:49:04.558Z,0.00
2019-04-14T02:50:13.868Z,0.00
2019-04-14T02:51:13.804Z,0.00
2019-04-14T02:52:12.049Z,0.00
2019-04-14T02:55:04.260Z,0.00
2019-04-14T02:57:15.043Z,0.00
2019-04-14T02:58:16.116Z,0.00
2019-04-14T02:59:03.719Z,0.00
2019-04-14T03:00:11.338Z,0.00
2019-04-14T03:01:14.777Z,0.00
2019-04-14T03:03:10.208Z,0.00
2019-04-14T03:04:09.153Z,0.00
2019-04-14T03:05:02.497Z,0.00
2019-04-14T03:06:05.751Z,0.00
2019-04-14T03:08:06.554Z,0.00
2019-04-14T03:09:22.137Z,0.00
2019-04-14T03:10:13.083Z,0.00
2019-04-14T03:11:25.705Z,0.00
2019-04-14T03:12:14.466Z,0.00
2019-04-14T03:13:13.135Z,0.00
2019-04-14T03:14:08.941Z,0.00
2019-04-14T03:15:08.060Z,0.00
2019-04-14T03:16:17.502Z,0.00
2019-04-14T03:17:21.455Z,0.00
2019-04-14T03:18:24.039Z,0.00
2019-04-14T03:19:09.478Z,0.00
2019-04-14T03:20:13.692Z,0.00
2019-04-14T03:21:13.797Z,0.00
2019-04-14T03:22:25.825Z,0.00
2019-04-14T03:23:19.272Z,0.00
2019-04-14T03:24:55.366Z,0.00
2019-04-14T03:26:05.031Z,0.00
2019-04-14T03:27:09.412Z,0.00
2019-04-14T03:28:28.387Z,0.00
2019-04-14T03:29:05.390Z,0.00
2019-04-14T03:30:17.467Z,0.00
2019-04-14T03:35:36.009Z,0.00
2019-04-14T03:38:14.638Z,0.00
2019-04-14T03:39:12.472Z,0.00
2019-04-14T03:40:10.002Z,0.00
2019-04-14T03:42:10.836Z,0.00
2019-04-14T03:43:17.062Z,0.00
2019-04-14T03:44:11.757Z,0.00
2019-04-14T03:45:07.903Z,0.00
2019-04-14T03:46:18.002Z,0.00
2019-04-14T03:49:26.524Z,0.00
2019-04-14T03:50:05.931Z,0.00
2019-04-14T03:51:15.107Z,0.00
2019-04-14T03:52:08.609Z,0.00
2019-04-14T03:54:03.364Z,0.00
2019-04-14T03:54:56.976Z,0.00
2019-04-14T03:55:49.112Z,0.00
2019-04-14T03:56:42.175Z,0.00
2019-04-14T03:57:43.321Z,0.00
2019-04-14T03:58:42.169Z,0.00
2019-04-14T03:59:43.443Z,0.00
2019-04-14T04:00:42.219Z,0.00
2019-04-14T04:01:43.424Z,0.00
2019-04-14T04:02:42.319Z,0.00
2019-04-14T04:03:42.089Z,0.00
2019-04-14T04:04:42.377Z,0.00
2019-04-14T04:05:42.061Z,0.00
2019-04-14T04:06:42.266Z,0.00
2019-04-14T04:07:43.158Z,0.00
2019-04-14T04:08:42.103Z,0.00
2019-04-14T04:09:43.232Z,0.00
2019-04-14T04:10:42.242Z,0.00
2019-04-14T04:11:43.304Z,0.00
2019-04-14T04:12:42.217Z,0.00
2019-04-14T04:13:41.975Z,0.00
2019-04-14T04:14:42.034Z,0.00
2019-04-14T04:15:43.195Z,0.00
2019-04-14T04:16:41.981Z,0.00
2019-04-14T04:17:42.947Z,0.00
2019-04-14T04:18:50.859Z,0.00
2019-04-14T04:19:42.641Z,0.00
2019-04-14T04:20:41.887Z,0.00
2019-04-14T04:21:42.337Z,0.00
2019-04-14T04:22:41.858Z,0.00
2019-04-14T04:23:42.451Z,0.00
2019-04-14T04:24:41.841Z,0.00
2019-04-14T04:25:42.206Z,0.00
2019-04-14T04:26:42.874Z,0.00
2019-04-14T04:27:41.952Z,0.00
2019-04-14T04:28:42.851Z,0.00
2019-04-14T04:29:42.036Z,0.00
2019-04-14T04:30:42.671Z,0.00
2019-04-14T04:31:41.794Z,0.00
2019-04-14T04:32:42.591Z,0.00
2019-04-14T04:33:41.735Z,0.00
2019-04-14T04:34:42.334Z,0.00
2019-04-14T04:35:41.711Z,0.00
2019-04-14T04:36:42.028Z,0.00
2019-04-14T04:37:41.684Z,5.63
2019-04-14T04:38:42.039Z,5.63
2019-04-14T04:39:41.668Z,5.63
2019-04-14T04:40:41.905Z,5.63
2019-04-14T04:41:42.801Z,5.63
2019-04-14T04:42:41.700Z,5.63
2019-04-14T04:43:41.618Z,5.63
2019-04-14T04:44:42.156Z,11.25
2019-04-14T04:45:41.600Z,11.25
2019-04-14T04:46:41.632Z,11.25
2019-04-14T04:47:42.590Z,16.88
2019-04-14T04:48:41.557Z,16.88
2019-04-14T04:49:42.616Z,22.50
2019-04-14T04:50:41.540Z,22.50
2019-04-14T04:51:42.153Z,22.50
2019-04-14T04:52:41.514Z,22.50
2019-04-14T04:53:41.983Z,22.50
2019-04-14T04:54:42.752Z,22.50
2019-04-14T04:55:41.717Z,22.50
2019-04-14T04:56:42.633Z,22.50
2019-04-14T04:57:41.637Z,28.13
2019-04-14T04:58:41.440Z,28.13
2019-04-14T04:59:41.428Z,28.13
2019-04-14T05:00:41.677Z,33.75
2019-04-14T05:01:41.407Z,33.75
2019-04-14T05:02:41.792Z,39.38
2019-04-14T05:03:41.389Z,45.00
2019-04-14T05:04:41.627Z,45.00
2019-04-14T05:05:41.366Z,50.63
2019-04-14T05:06:41.716Z,50.63
2019-04-14T05:07:42.439Z,56.25
2019-04-14T05:08:41.374Z,56.25
2019-04-14T05:09:41.312Z,61.88
2019-04-14T05:10:41.433Z,61.88
2019-04-14T05:11:42.557Z,61.88
2019-04-14T05:12:41.424Z,67.50
2019-04-14T05:13:42.362Z,67.50
2019-04-14T05:14:41.284Z,67.50
2019-04-14T05:15:42.381Z,67.50
2019-04-14T05:16:41.864Z,73.13
2019-04-14T05:17:41.226Z,73.13
2019-04-14T05:18:41.917Z,78.75
2019-04-14T05:19:42.052Z,84.38
2019-04-14T05:20:42.034Z,84.38
2019-04-14T05:21:41.176Z,84.38
2019-04-14T05:22:41.863Z,95.63
2019-04-14T05:23:41.161Z,101.25
2019-04-14T05:24:41.776Z,101.25
2019-04-14T05:25:41.137Z,106.88
2019-04-14T05:26:41.745Z,106.88
2019-04-14T05:27:41.107Z,112.50
2019-04-14T05:28:41.651Z,118.13
2019-04-14T05:29:41.086Z,123.75
2019-04-14T05:30:41.517Z,123.75
2019-04-14T05:31:41.067Z,135.00
2019-04-14T05:32:41.351Z,140.63
2019-04-14T05:33:41.040Z,146.25
2019-04-14T05:34:41.224Z,151.88
2019-04-14T05:35:42.097Z,163.13
2019-04-14T05:36:41.168Z,168.75
2019-04-14T05:37:41.921Z,168.75
2019-04-14T05:38:40.982Z,174.38
2019-04-14T05:39:41.901Z,174.38
2019-04-14T05:40:40.964Z,168.75
2019-04-14T05:41:55.849Z,168.75
2019-04-14T05:42:40.958Z,174.38
2019-04-14T05:43:48.784Z,174.38
2019-04-14T05:44:40.924Z,180.00
2019-04-14T05:45:41.647Z,180.00
2019-04-14T05:46:40.919Z,185.63
2019-04-14T05:47:41.483Z,180.00
2019-04-14T05:48:40.880Z,180.00
2019-04-14T05:49:45.506Z,174.38
2019-04-14T05:50:40.855Z,180.00
2019-04-14T05:51:41.567Z,180.00
2019-04-14T05:52:40.833Z,185.63
2019-04-14T05:53:41.591Z,191.25
2019-04-14T05:54:40.820Z,202.50
2019-04-14T05:55:41.633Z,213.75
2019-04-14T05:56:40.824Z,225.00
2019-04-14T05:57:41.647Z,241.88
2019-04-14T05:58:40.775Z,253.13
2019-04-14T05:59:41.795Z,264.38
2019-04-14T06:00:40.759Z,270.00
2019-04-14T06:01:41.956Z,270.00
2019-04-14T06:02:41.925Z,281.25
2019-04-14T06:03:40.840Z,275.63
2019-04-14T06:04:41.714Z,286.88
2019-04-14T06:05:40.702Z,292.50
2019-04-14T06:06:40.697Z,303.75
2019-04-14T06:07:40.688Z,309.38
2019-04-14T06:08:40.680Z,315.00
2019-04-14T06:09:40.668Z,331.88
2019-04-14T06:10:40.653Z,343.13
2019-04-14T06:11:40.643Z,371.25
2019-04-14T06:12:40.637Z,393.75
2019-04-14T06:13:40.626Z,399.38
2019-04-14T06:14:40.621Z,393.75
2019-04-14T06:15:40.613Z,388.13
2019-04-14T06:16:40.599Z,393.75
2019-04-14T06:17:40.588Z,388.13
2019-04-14T06:18:40.583Z,388.13
2019-04-14T06:19:40.780Z,388.13
2019-04-14T06:20:40.561Z,393.75
2019-04-14T06:21:40.550Z,433.13
2019-04-14T06:22:40.538Z,438.75
2019-04-14T06:23:40.584Z,455.63
2019-04-14T06:24:40.520Z,461.25
2019-04-14T06:25:40.510Z,461.25
2019-04-14T06:26:40.506Z,489.38
2019-04-14T06:27:40.495Z,523.13
2019-04-14T06:28:40.509Z,534.38
2019-04-14T06:29:40.481Z,551.25
2019-04-14T06:30:40.469Z,500.63
2019-04-14T06:31:40.460Z,495.00
2019-04-14T06:32:40.455Z,461.25
2019-04-14T06:33:40.445Z,483.75
2019-04-14T06:34:40.435Z,500.63
2019-04-14T06:35:40.426Z,483.75
2019-04-14T06:36:40.417Z,489.38
2019-04-14T06:37:40.411Z,517.50
2019-04-14T06:38:40.404Z,618.75
2019-04-14T06:39:40.395Z,680.63
2019-04-14T06:40:40.390Z,697.50
2019-04-14T06:41:40.382Z,725.63
2019-04-14T06:42:40.371Z,759.38
2019-04-14T06:43:48.661Z,776.25
2019-04-14T06:44:40.352Z,776.25
2019-04-14T06:45:40.342Z,793.13
2019-04-14T06:46:40.341Z,781.88
2019-04-14T06:47:40.334Z,849.38
2019-04-14T06:48:40.321Z,838.13
2019-04-14T06:49:48.937Z,883.13
2019-04-14T06:50:40.313Z,900.00
2019-04-14T06:51:40.307Z,928.13
2019-04-14T06:52:40.300Z,956.25
2019-04-14T06:53:40.293Z,950.63
2019-04-14T06:54:40.285Z,1001.25
2019-04-14T06:55:40.279Z,1035.00
2019-04-14T06:56:40.272Z,1057.50
2019-04-14T06:57:40.265Z,1051.88
2019-04-14T06:58:40.266Z,1063.13
2019-04-14T06:59:40.259Z,1068.75
2019-04-14T07:00:40.250Z,1074.38
2019-04-14T07:01:40.252Z,1068.75
2019-04-14T07:02:40.237Z,1080.00
2019-04-14T07:03:40.234Z,1063.13
2019-04-14T07:04:40.234Z,1057.50
2019-04-14T07:05:40.226Z,1063.13
2019-04-14T07:06:40.219Z,1102.50
2019-04-14T07:07:40.215Z,1091.25
2019-04-14T07:08:40.212Z,939.38
2019-04-14T07:09:40.210Z,1113.75
2019-04-14T07:10:40.208Z,939.38
2019-04-14T07:11:40.206Z,933.75
2019-04-14T07:12:42.917Z,1046.25
2019-04-14T07:13:40.221Z,1006.88
2019-04-14T07:14:40.191Z,1046.25
2019-04-14T07:15:40.187Z,1226.25
2019-04-14T07:16:40.180Z,1243.13
2019-04-14T07:17:40.177Z,1203.75
2019-04-14T07:18:40.176Z,1248.75
2019-04-14T07:19:40.178Z,1231.88
2019-04-14T07:20:40.169Z,1181.25
2019-04-14T07:21:40.164Z,1226.25
2019-04-14T07:22:40.166Z,1254.38
2019-04-14T07:23:40.162Z,1260.00
2019-04-14T07:24:40.158Z,1215.00
2019-04-14T07:25:40.155Z,1282.50
2019-04-14T07:26:40.148Z,1271.25
2019-04-14T07:27:40.147Z,1293.75
2019-04-14T07:28:40.178Z,1276.88
2019-04-14T07:29:40.140Z,1310.63
2019-04-14T07:30:40.140Z,1350.00
2019-04-14T07:31:40.137Z,1378.13
2019-04-14T07:32:40.131Z,1411.88
2019-04-14T07:33:40.129Z,1451.25
2019-04-14T07:34:40.121Z,1473.75
2019-04-14T07:35:40.119Z,1456.88
2019-04-14T07:36:40.120Z,1496.25
2019-04-14T07:37:40.116Z,1496.25
2019-04-14T07:38:40.111Z,1485.00
2019-04-14T07:39:40.110Z,1501.88
2019-04-14T07:40:40.110Z,1507.50
2019-04-14T07:41:40.108Z,1541.25
2019-04-14T07:42:40.111Z,1558.13
2019-04-14T07:43:40.107Z,1558.13
2019-04-14T07:44:40.104Z,1575.00
2019-04-14T07:45:40.102Z,1552.50
2019-04-14T07:46:40.095Z,1305.00
2019-04-14T07:47:40.094Z,1299.38
2019-04-14T07:48:40.096Z,1293.75
2019-04-14T07:49:40.094Z,1293.75
2019-04-14T07:50:40.099Z,1321.88
2019-04-14T07:51:40.097Z,1310.63
2019-04-14T07:52:40.095Z,1141.88
2019-04-14T07:53:40.089Z,1372.50
2019-04-14T07:54:41.449Z,1372.50
2019-04-14T07:55:40.097Z,1366.88
2019-04-14T07:56:40.091Z,1406.25
2019-04-14T07:57:40.097Z,1400.63
2019-04-14T07:58:40.085Z,1417.50
2019-04-14T07:59:40.084Z,1434.38
2019-04-14T08:00:40.086Z,1445.63
2019-04-14T08:01:40.084Z,1462.50
2019-04-14T08:02:40.090Z,1479.38
2019-04-14T08:03:40.097Z,1496.25
2019-04-14T08:04:40.091Z,1507.50
2019-04-14T08:05:40.094Z,1513.13
2019-04-14T08:06:40.089Z,1552.50
2019-04-14T08:07:40.091Z,1558.13
2019-04-14T08:08:40.093Z,1575.00
2019-04-14T08:09:40.094Z,1642.50
2019-04-14T08:10:40.091Z,1659.38
2019-04-14T08:11:40.095Z,1676.25
2019-04-14T08:12:40.091Z,1710.00
2019-04-14T08:13:40.090Z,1828.13
2019-04-14T08:14:40.098Z,1918.13
2019-04-14T08:15:40.098Z,2081.25
2019-04-14T08:16:40.099Z,2205.00
2019-04-14T08:17:40.101Z,2356.88
2019-04-14T08:18:40.111Z,2306.25
2019-04-14T08:19:40.100Z,2238.75
2019-04-14T08:20:40.105Z,2227.50
2019-04-14T08:21:40.105Z,2283.75
2019-04-14T08:22:40.115Z,2396.25
2019-04-14T08:23:40.114Z,2458.13
2019-04-14T08:24:40.115Z,2480.63
2019-04-14T08:25:40.113Z,2475.00
2019-04-14T08:26:40.133Z,2598.75
2019-04-14T08:27:40.124Z,2700.00
2019-04-14T08:28:40.122Z,2801.25
2019-04-14T08:29:40.124Z,2795.63
2019-04-14T08:30:40.126Z,2761.88
2019-04-14T08:31:40.126Z,2857.50
2019-04-14T08:32:40.128Z,3071.25
2019-04-14T08:33:40.133Z,3031.88
2019-04-14T08:34:40.139Z,3093.75
2019-04-14T08:35:40.144Z,3245.63
2019-04-14T08:36:40.145Z,3178.13
2019-04-14T08:37:40.150Z,3127.50
2019-04-14T08:38:40.184Z,3352.50
2019-04-14T08:39:40.152Z,3420.00
2019-04-14T08:40:40.162Z,3296.25
2019-04-14T08:41:40.165Z,3200.63
2019-04-14T08:42:40.164Z,3076.88
2019-04-14T08:43:40.168Z,3144.38
2019-04-14T08:44:40.169Z,3150.00
2019-04-14T08:45:40.174Z,3110.63
2019-04-14T08:46:40.183Z,3082.50
2019-04-14T08:47:40.186Z,2992.50
2019-04-14T08:48:40.187Z,2986.88
2019-04-14T08:49:40.191Z,3054.38
2019-04-14T08:50:40.217Z,3127.50
2019-04-14T08:51:40.203Z,3048.75
2019-04-14T08:52:40.205Z,2902.50
2019-04-14T08:53:40.209Z,2964.38
2019-04-14T08:54:40.209Z,3223.13
2019-04-14T08:55:40.214Z,3240.00
2019-04-14T08:56:40.222Z,3076.88
2019-04-14T08:57:40.228Z,2970.00
2019-04-14T08:58:40.225Z,2970.00
2019-04-14T08:59:40.231Z,2998.13
2019-04-14T09:00:40.239Z,2975.63
2019-04-14T09:01:40.242Z,2919.38
2019-04-14T09:02:40.253Z,2964.38
2019-04-14T09:03:40.256Z,2981.25
2019-04-14T09:04:40.265Z,2885.63
2019-04-14T09:05:40.265Z,2880.00
2019-04-14T09:06:40.267Z,2908.13
2019-04-14T09:07:40.271Z,2891.25
2019-04-14T09:08:40.273Z,2964.38
2019-04-14T09:09:40.277Z,2981.25
2019-04-14T09:10:40.288Z,2998.13
2019-04-14T09:11:40.295Z,2964.38
2019-04-14T09:12:40.294Z,2902.50
2019-04-14T09:13:40.298Z,3009.38
2019-04-14T09:14:40.309Z,3054.38
2019-04-14T09:15:40.313Z,3020.63
2019-04-14T09:16:40.324Z,2953.13
2019-04-14T09:17:40.329Z,2947.50
2019-04-14T09:18:40.329Z,2970.00
2019-04-14T09:19:40.336Z,3026.25
2019-04-14T09:20:51.812Z,3054.38
2019-04-14T09:21:40.347Z,3076.88
2019-04-14T09:22:40.359Z,3076.88
2019-04-14T09:23:40.366Z,3121.88
2019-04-14T09:24:40.367Z,3144.38
2019-04-14T09:25:40.373Z,3093.75
2019-04-14T09:26:40.374Z,3307.50
2019-04-14T09:27:40.382Z,3352.50
2019-04-14T09:28:40.391Z,3301.88
2019-04-14T09:29:40.398Z,3256.88
2019-04-14T09:30:40.401Z,3273.75
2019-04-14T09:31:40.407Z,3470.63
2019-04-14T09:32:40.417Z,3487.50
2019-04-14T09:33:40.423Z,3515.63
2019-04-14T09:34:40.434Z,3577.50
2019-04-14T09:35:40.444Z,3836.25
2019-04-14T09:36:40.447Z,3870.00
2019-04-14T09:37:40.457Z,3774.38
2019-04-14T09:38:40.459Z,3740.63
2019-04-14T09:39:40.467Z,3538.13
2019-04-14T09:40:40.471Z,3375.00
2019-04-14T09:41:40.479Z,3335.63
2019-04-14T09:42:40.491Z,3414.38
2019-04-14T09:43:40.497Z,3369.38
2019-04-14T09:44:40.499Z,3397.50
2019-04-14T09:45:40.506Z,3442.50
2019-04-14T09:46:40.518Z,3414.38
2019-04-14T09:47:40.526Z,3453.75
2019-04-14T09:48:42.776Z,3470.63
2019-04-14T09:49:40.556Z,3414.38
2019-04-14T09:50:40.547Z,3465.00
2019-04-14T09:51:40.564Z,3487.50
2019-04-14T09:52:40.558Z,3521.25
2019-04-14T09:53:40.567Z,3577.50
2019-04-14T09:54:40.579Z,3560.63
2019-04-14T09:55:40.588Z,3555.00
2019-04-14T09:56:40.601Z,3661.88
2019-04-14T09:57:40.603Z,3571.88
2019-04-14T09:58:40.607Z,3566.25
2019-04-14T09:59:40.615Z,3549.38
2019-04-14T10:00:40.628Z,3414.38
2019-04-14T10:01:40.636Z,3425.63
2019-04-14T10:02:40.638Z,3470.63
2019-04-14T10:03:40.647Z,3476.25
2019-04-14T10:04:40.652Z,3386.25
2019-04-14T10:05:40.657Z,3526.88
2019-04-14T10:06:41.052Z,3510.00
2019-04-14T10:07:40.679Z,3431.25
2019-04-14T10:08:40.685Z,3256.88
2019-04-14T10:09:40.692Z,2958.75
2019-04-14T10:10:40.696Z,2902.50
2019-04-14T10:11:48.423Z,2846.25
2019-04-14T10:12:40.713Z,2778.75
2019-04-14T10:13:40.722Z,2750.63
2019-04-14T10:14:40.730Z,2716.88
2019-04-14T10:15:40.740Z,2688.75
2019-04-14T10:16:40.740Z,2615.63
2019-04-14T10:17:40.746Z,2587.50
2019-04-14T10:18:40.757Z,2536.88
2019-04-14T10:19:40.763Z,2497.50
2019-04-14T10:20:40.767Z,2531.25
2019-04-14T10:21:40.774Z,2475.00
2019-04-14T10:22:40.773Z,2475.00
2019-04-14T10:23:40.779Z,2390.63
2019-04-14T10:24:40.838Z,2390.63
2019-04-14T10:25:40.790Z,2351.25
2019-04-14T10:26:40.802Z,2345.63
2019-04-14T10:27:40.807Z,2340.00
2019-04-14T10:28:40.813Z,2323.13
2019-04-14T10:29:40.825Z,2317.50
2019-04-14T10:30:40.821Z,2306.25
2019-04-14T10:31:40.832Z,2295.00
2019-04-14T10:32:40.836Z,2272.50
2019-04-14T10:33:40.842Z,2283.75
2019-04-14T10:34:40.850Z,2295.00
2019-04-14T10:35:40.851Z,2334.38
2019-04-14T10:36:40.852Z,2497.50
2019-04-14T10:37:40.863Z,2773.13
2019-04-14T10:38:40.869Z,2896.88
2019-04-14T10:39:40.874Z,3020.63
2019-04-14T10:40:40.880Z,3009.38
2019-04-14T10:41:40.887Z,2913.75
2019-04-14T10:42:40.887Z,3223.13
2019-04-14T10:43:40.909Z,3616.88
2019-04-14T10:44:40.901Z,3616.88
2019-04-14T10:45:40.907Z,3498.75
2019-04-14T10:46:40.915Z,3358.13
2019-04-14T10:47:40.919Z,3425.63
2019-04-14T10:48:40.919Z,3560.63
2019-04-14T10:49:40.925Z,3526.88
2019-04-14T10:50:40.934Z,3706.88
2019-04-14T10:51:40.941Z,3650.63
2019-04-14T10:52:40.939Z,3622.50
2019-04-14T10:53:40.943Z,3555.00
2019-04-14T10:54:40.944Z,3600.00
2019-04-14T10:55:40.946Z,3706.88
2019-04-14T10:56:40.954Z,3853.13
2019-04-14T10:57:40.960Z,3661.88
2019-04-14T10:58:40.970Z,3898.13
2019-04-14T10:59:40.970Z,3740.63
2019-04-14T11:00:40.971Z,3577.50
2019-04-14T11:01:40.976Z,3656.25
2019-04-14T11:02:40.975Z,3735.00
2019-04-14T11:03:40.981Z,3808.13
2019-04-14T11:04:40.986Z,3864.38
2019-04-14T11:05:40.991Z,3892.50
2019-04-14T11:06:40.992Z,3819.38
2019-04-14T11:07:40.995Z,3915.00
2019-04-14T11:08:41.002Z,3701.25
2019-04-14T11:09:41.006Z,3121.88
2019-04-14T11:10:41.013Z,3189.38
2019-04-14T11:11:41.018Z,3549.38
2019-04-14T11:12:41.020Z,3723.75
2019-04-14T11:13:41.027Z,3864.38
2019-04-14T11:14:41.026Z,3847.50
2019-04-14T11:15:41.032Z,3965.63
2019-04-14T11:16:41.036Z,3948.75
2019-04-14T11:17:41.036Z,3285.00
2019-04-14T11:18:41.049Z,3757.50
2019-04-14T11:19:41.048Z,3577.50
2019-04-14T11:20:41.047Z,3616.88
2019-04-14T11:21:42.591Z,3645.00
2019-04-14T11:22:41.061Z,3605.63
2019-04-14T11:23:41.063Z,3526.88
2019-04-14T11:24:41.069Z,2300.63
2019-04-14T11:25:41.076Z,1119.38
2019-04-14T11:26:41.070Z,1023.75
2019-04-14T11:27:41.073Z,1068.75
2019-04-14T11:28:41.076Z,939.38
2019-04-14T11:29:41.079Z,888.75
2019-04-14T11:30:41.086Z,866.25
2019-04-14T11:31:41.093Z,849.38
2019-04-14T11:32:41.087Z,849.38
2019-04-14T11:33:41.089Z,838.13
2019-04-14T11:34:41.087Z,888.75
2019-04-14T11:35:41.087Z,843.75
2019-04-14T11:36:41.094Z,843.75
2019-04-14T11:37:41.164Z,871.88
2019-04-14T11:38:41.090Z,821.25
2019-04-14T11:39:41.091Z,798.75
2019-04-14T11:40:41.093Z,793.13
2019-04-14T11:41:41.094Z,776.25
2019-04-14T11:42:51.775Z,770.63
2019-04-14T11:43:41.097Z,765.00
2019-04-14T11:44:41.094Z,753.75
2019-04-14T11:45:41.095Z,765.00
2019-04-14T11:46:41.087Z,765.00
2019-04-14T11:47:41.087Z,759.38
2019-04-14T11:48:41.080Z,770.63
2019-04-14T11:49:41.080Z,765.00
2019-04-14T11:50:41.082Z,765.00
2019-04-14T11:51:41.081Z,770.63
2019-04-14T11:52:41.075Z,753.75
2019-04-14T11:53:41.119Z,793.13
2019-04-14T11:54:41.079Z,798.75
2019-04-14T11:55:41.070Z,793.13
2019-04-14T11:56:41.068Z,770.63
2019-04-14T11:57:41.073Z,776.25
2019-04-14T11:58:41.071Z,798.75
2019-04-14T11:59:41.056Z,787.50
2019-04-14T12:00:41.051Z,781.88
2019-04-14T12:01:41.046Z,770.63
2019-04-14T12:02:41.047Z,753.75
2019-04-14T12:03:41.043Z,753.75
2019-04-14T12:04:41.043Z,759.38
2019-04-14T12:05:41.038Z,697.50
2019-04-14T12:06:41.030Z,675.00
2019-04-14T12:07:41.032Z,596.25
2019-04-14T12:08:41.027Z,646.88
2019-04-14T12:09:41.023Z,641.25
2019-04-14T12:10:41.016Z,635.63
2019-04-14T12:11:41.013Z,635.63
2019-04-14T12:12:41.009Z,641.25
2019-04-14T12:13:41.002Z,630.00
2019-04-14T12:14:41.004Z,630.00
2019-04-14T12:15:40.998Z,635.63
2019-04-14T12:16:40.994Z,641.25
2019-04-14T12:17:40.991Z,641.25
2019-04-14T12:18:40.997Z,646.88
2019-04-14T12:19:40.980Z,663.75
2019-04-14T12:20:40.977Z,703.13
2019-04-14T12:21:40.974Z,675.00
2019-04-14T12:22:40.975Z,652.50
2019-04-14T12:23:40.968Z,635.63
2019-04-14T12:24:40.959Z,601.88
2019-04-14T12:25:40.955Z,607.50
2019-04-14T12:26:40.955Z,658.13
2019-04-14T12:27:42.000Z,686.25
2019-04-14T12:28:40.944Z,680.63
2019-04-14T12:29:41.245Z,725.63
2019-04-14T12:30:41.955Z,770.63
2019-04-14T12:31:41.966Z,753.75
2019-04-14T12:32:40.921Z,731.25
2019-04-14T12:33:40.917Z,652.50
2019-04-14T12:34:40.917Z,562.50
2019-04-14T12:35:40.913Z,613.13
2019-04-14T12:36:40.912Z,590.63
2019-04-14T12:37:40.905Z,618.75
2019-04-14T12:38:40.897Z,607.50
2019-04-14T12:39:40.896Z,590.63
2019-04-14T12:40:40.893Z,573.75
2019-04-14T12:41:40.888Z,573.75
2019-04-14T12:42:40.879Z,562.50
2019-04-14T12:43:40.876Z,556.88
2019-04-14T12:44:40.866Z,551.25
2019-04-14T12:45:40.863Z,545.63
2019-04-14T12:46:40.863Z,545.63
2019-04-14T12:47:40.861Z,540.00
2019-04-14T12:48:40.864Z,528.75
2019-04-14T12:49:40.849Z,528.75
2019-04-14T12:50:40.841Z,528.75
2019-04-14T12:51:40.837Z,540.00
2019-04-14T12:52:40.832Z,551.25
2019-04-14T12:53:40.827Z,579.38
2019-04-14T12:54:40.827Z,635.63